Willard, Colorado
Current Conditions -  °F | °C
As of 7:15 PM on Friday 24 Oct 2014 (Local Time) from KSTK Reporting Station
Clear Clear  
Wind Chill: 18°   Ceiling: Unl
Heat Index: 18°   Visibility: 10mi
Dew Point:   Wind: 0mph
Humidity: 32%   Direction: NA
Pressure: 30.08"   Gusts: NA
Location:  40.5426°N, 103.449°W
Report Text: KSTK 250115Z AUTO 00000KT 10SM CLR 18/01 A3008 RMK AO2
Loading
Personal Weather Stations






























Interactive Weather Map
Tropical Storm Tracking
New forecast layout! Learn more

10-Day Weather Forecast

Advertisements
Track Severe Weather on mobile